Time;durP1;ratioP1;P1;durP2;ratioP2;P2;SDS_P1;SDS_P2;PMS_P1;PMS_P2;Temp;Humidity;BMP_temperature;BMP_pressure;BME280_temperature;BME280_humidity;BME280_pressure;Samples;Min_cycle;Max_cycle;Signal;HPM_P1;HPM_P2
2022/06/28 00:01:52;;;;;;;5.47;4.97;;;;;;;18.78;62.73;95077.88;5072051;28;20105;-69
2022/06/28 00:04:21;;;;;;;5.40;4.90;;;;;;;18.75;62.60;95084.31;5054754;28;20032;-69
2022/06/28 00:06:47;;;;;;;5.72;5.20;;;;;;;18.64;62.88;95073.31;5071701;28;20116;-69
2022/06/28 00:09:14;;;;;;;6.97;5.18;;;;;;;18.61;62.85;95077.09;5071865;28;20123;-69
2022/06/28 00:11:40;;;;;;;8.45;4.93;;;;;;;18.62;62.59;95078.72;5055505;28;20206;-69
2022/06/28 00:16:04;;;;;;;7.00;5.20;;;;;;;18.64;62.69;95082.03;5054406;28;20035;-69
2022/06/28 00:16:50;;;;;;;6.70;5.28;;;;;;;18.64;62.61;95084.66;5071863;28;20032;-69
2022/06/28 00:19:16;;;;;;;8.38;5.30;;;;;;;18.46;63.15;95079.59;5072717;28;20044;-69
2022/06/28 00:21:42;;;;;;;5.82;5.22;;;;;;;18.48;63.44;95084.69;5071657;28;20028;-70
2022/06/28 00:24:08;;;;;;;5.70;5.20;;;;;;;18.44;63.30;95088.63;5072303;28;20410;-69
2022/06/28 00:26:33;;;;;;;5.95;5.38;;;;;;;18.46;63.70;95087.47;5072786;28;20024;-70
2022/06/28 00:28:59;;;;;;;11.05;5.78;;;;;;;18.33;64.09;95074.06;5071628;28;20089;-69
2022/06/28 00:31:25;;;;;;;6.20;5.00;;;;;;;18.36;63.86;95088.66;5072708;28;20502;-69
2022/06/28 00:33:51;;;;;;;6.35;5.47;;;;;;;18.28;64.53;95081.63;5070903;28;20033;-69
2022/06/28 00:36:16;;;;;;;7.25;5.78;;;;;;;18.26;65.22;95089.69;5054828;28;20407;-69
2022/06/28 00:38:41;;;;;;;6.13;5.53;;;;;;;18.19;65.61;95088.72;5071014;28;20029;-69
2022/06/28 00:41:07;;;;;;;8.32;5.30;;;;;;;18.12;65.64;95085.09;5072413;28;20086;-69
2022/06/28 00:43:33;;;;;;;5.68;5.07;;;;;;;18.16;65.60;95085.59;5070774;28;20033;-69
2022/06/28 00:45:59;;;;;;;6.97;5.47;;;;;;;18.14;65.55;95083.13;5087717;28;20040;-70
2022/06/28 00:48:24;;;;;;;6.03;5.43;;;;;;;18.09;65.69;95083.63;5071149;28;20025;-69
2022/06/28 00:50:49;;;;;;;8.30;5.53;;;;;;;18.05;65.34;95084.97;5070948;28;20050;-69
2022/06/28 00:53:16;;;;;;;7.68;5.50;;;;;;;17.96;65.25;95079.88;5054415;28;20028;-69
2022/06/28 00:55:43;;;;;;;6.43;5.10;;;;;;;17.93;65.31;95080.19;5054418;28;20036;-69
2022/06/28 00:58:09;;;;;;;7.70;5.40;;;;;;;17.96;65.11;95085.13;5054738;28;20032;-70
2022/06/28 01:00:45;;;;;;;7.10;4.80;;;;;;;17.84;65.22;95068.88;5070372;28;20113;-70
2022/06/28 01:03:13;;;;;;;6.07;5.47;;;;;;;17.84;65.34;95085.47;5070482;28;20043;-69
2022/06/28 01:05:38;;;;;;;6.88;5.60;;;;;;;17.81;65.29;95083.16;5070362;28;20107;-69
2022/06/28 01:08:05;;;;;;;6.85;5.63;;;;;;;17.80;65.16;95076.28;5070306;28;20040;-69
2022/06/28 01:10:31;;;;;;;6.32;5.38;;;;;;;17.76;65.79;95077.53;5053187;28;20043;-70
2022/06/28 01:12:56;;;;;;;6.80;5.35;;;;;;;17.74;65.49;95071.63;5070439;28;20056;-70
2022/06/28 01:15:22;;;;;;;6.40;5.20;;;;;;;17.75;65.85;95081.16;5053980;28;20036;-70
2022/06/28 01:17:47;;;;;;;5.90;5.30;;;;;;;17.73;65.66;95077.88;5053839;28;20040;-70
2022/06/28 01:20:12;;;;;;;5.65;5.05;;;;;;;17.76;65.77;95090.69;5070198;28;20037;-70
2022/06/28 01:22:40;;;;;;;5.68;5.10;;;;;;;17.74;65.93;95087.38;5070502;28;20482;-70
2022/06/28 01:25:07;;;;;;;7.22;5.60;;;;;;;17.73;65.88;95077.06;5069806;28;20102;-70
2022/06/28 01:27:33;;;;;;;6.90;5.40;;;;;;;17.68;66.11;95077.53;5070281;28;20042;-70
2022/06/28 01:29:59;;;;;;;5.97;5.05;;;;;;;17.67;66.14;95070.66;5070279;28;20020;-70
2022/06/28 01:32:26;;;;;;;7.00;5.55;;;;;;;17.53;66.63;95071.31;5070289;28;20422;-70
2022/06/28 01:34:52;;;;;;;7.32;5.28;;;;;;;17.36;67.32;95073.91;5071055;28;20506;-69
2022/06/28 01:37:17;;;;;;;6.03;5.35;;;;;;;17.30;67.32;95064.06;5070459;28;20028;-70
2022/06/28 01:39:42;;;;;;;6.97;5.43;;;;;;;17.39;67.34;95078.03;5053585;28;20453;-70
2022/06/28 01:42:08;;;;;;;7.60;6.03;;;;;;;17.22;67.62;95063.22;5070611;28;20048;-69
2022/06/28 01:44:34;;;;;;;7.22;6.53;;;;;;;17.18;68.04;95073.22;5053283;28;20041;-70
2022/06/28 01:46:59;;;;;;;9.80;6.10;;;;;;;17.13;68.21;95063.22;5053365;28;20024;-69
2022/06/28 01:49:25;;;;;;;6.15;5.30;;;;;;;17.18;68.20;95066.16;5036516;28;20028;-69
2022/06/28 01:51:51;;;;;;;7.68;6.10;;;;;;;17.20;68.03;95069.47;5069968;28;20410;-70
2022/06/28 01:54:16;;;;;;;6.63;5.93;;;;;;;17.15;67.94;95063.06;5069920;28;20032;-70
2022/06/28 01:56:43;;;;;;;7.60;5.43;;;;;;;17.16;68.21;95062.91;5049543;28;20035;-70
2022/06/28 01:59:08;;;;;;;6.03;5.43;;;;;;;17.18;68.13;95049.59;5051043;28;20111;-69
2022/06/28 02:01:36;;;;;;;6.57;5.78;;;;;;;17.24;67.93;95056.81;5033272;28;20082;-70
2022/06/28 02:04:19;;;;;;;6.00;5.50;;;;;;;17.36;67.53;95062.59;5052229;28;20032;-69
2022/06/28 02:06:44;;;;;;;5.90;5.30;;;;;;;17.37;67.37;95059.81;5069894;28;20028;-70
2022/06/28 02:09:10;;;;;;;8.75;5.93;;;;;;;17.36;67.36;95055.53;5070962;28;20036;-70
2022/06/28 02:11:35;;;;;;;8.23;5.82;;;;;;;17.23;67.97;95062.25;5052583;28;20028;-69
2022/06/28 02:14:01;;;;;;;7.03;5.78;;;;;;;17.39;67.30;95070.97;5069589;28;20040;-69
2022/06/28 02:16:26;;;;;;;10.45;8.00;;;;;;;17.32;68.82;95069.97;5069692;28;20051;-69
2022/06/28 02:18:52;;;;;;;8.43;7.63;;;;;;;17.28;69.56;95070.47;5070862;28;20039;-70
2022/06/28 02:21:17;;;;;;;9.82;8.05;;;;;;;17.26;69.63;95072.44;5070442;28;20025;-70
2022/06/28 02:23:43;;;;;;;8.73;7.93;;;;;;;17.27;69.98;95072.25;5069506;28;20024;-69
2022/06/28 02:26:11;;;;;;;8.20;7.40;;;;;;;17.23;70.05;95065.69;5069091;28;20036;-69
2022/06/28 02:28:37;;;;;;;8.90;8.10;;;;;;;17.20;70.12;95074.72;5069513;28;20479;-69
2022/06/28 02:31:11;;;;;;;9.23;8.38;;;;;;;17.20;70.13;95076.53;5069388;28;20493;-69
2022/06/28 02:33:36;;;;;;;9.02;7.50;;;;;;;17.19;69.98;95072.25;5069376;28;20107;-70
2022/06/28 02:41:29;;;;;;;10.13;8.25;;;;;;;16.93;70.26;95070.53;5069683;28;20039;-70
2022/06/28 02:43:55;;;;;;;10.82;9.20;;;;;;;16.90;70.54;95083.97;5069339;28;20054;-70
2022/06/28 03:02:40;;;;;;;11.35;9.30;;;;;;;17.04;70.19;95082.53;5149395;27;20742;-69
2022/06/28 03:05:07;;;;;;;12.27;8.50;;;;;;;17.01;70.69;95080.25;5148760;27;20031;-69
2022/06/28 03:07:33;;;;;;;8.15;7.22;;;;;;;17.00;69.70;95073.38;5149661;27;20060;-69
2022/06/28 03:09:58;;;;;;;8.85;6.50;;;;;;;16.93;69.49;95067.91;5130935;27;20050;-70
2022/06/28 03:12:24;;;;;;;6.60;5.90;;;;;;;16.90;69.04;95057.75;5146637;27;20027;-69
2022/06/28 03:14:49;;;;;;;7.55;6.00;;;;;;;16.95;68.98;95065.97;5127398;28;20457;-70
2022/06/28 03:17:15;;;;;;;7.50;6.13;;;;;;;16.97;68.66;95055.31;5110426;28;20415;-70
2022/06/28 03:19:40;;;;;;;7.70;6.50;;;;;;;16.92;68.86;95061.03;5119363;27;20038;-69
2022/06/28 03:22:06;;;;;;;10.57;6.15;;;;;;;16.87;68.91;95063.31;5145459;27;20105;-70
2022/06/28 03:24:31;;;;;;;7.80;5.70;;;;;;;16.85;69.04;95061.81;5127473;28;20404;-70
2022/06/28 03:41:50;;;;;;;11.68;9.30;;;;;;;17.71;69.05;95066.69;5149669;27;20770;-70
2022/06/28 03:44:15;;;;;;;8.20;7.20;;;;;;;17.61;67.49;95066.06;5149158;27;20043;-70
2022/06/28 03:46:41;;;;;;;7.63;6.85;;;;;;;17.71;67.45;95069.31;5129313;27;20396;-70
2022/06/28 03:49:06;;;;;;;7.18;6.47;;;;;;;17.76;66.69;95063.59;5128472;28;20020;-70
2022/06/28 03:51:32;;;;;;;9.90;6.95;;;;;;;17.69;66.58;95063.44;5127545;27;20035;-70
2022/06/28 03:53:58;;;;;;;11.00;8.45;;;;;;;17.73;68.85;95074.44;5127595;28;20042;-71
2022/06/28 03:56:23;;;;;;;11.27;10.02;;;;;;;17.70;69.45;95082.66;5127545;28;20235;-70
2022/06/28 03:58:49;;;;;;;10.02;9.02;;;;;;;17.63;70.04;95075.44;5123906;27;20028;-71
2022/06/28 04:01:15;;;;;;;13.07;9.60;;;;;;;17.74;69.90;95086.56;5107184;28;20032;-70
2022/06/28 04:03:40;;;;;;;10.57;8.95;;;;;;;17.75;69.57;95094.31;5124126;28;20073;-71
2022/06/28 04:06:06;;;;;;;12.75;8.50;;;;;;;17.83;68.82;95088.25;5122930;28;20023;-70
2022/06/28 04:08:31;;;;;;;10.13;9.13;;;;;;;18.00;68.04;95081.19;5128596;28;20035;-70
2022/06/28 04:11:15;;;;;;;11.73;9.50;;;;;;;18.29;67.65;95085.88;5128486;27;20051;-70
2022/06/28 04:13:47;;;;;;;12.25;9.68;;;;;;;18.83;66.32;95086.06;5127324;28;20031;-70
2022/06/28 04:16:14;;;;;;;11.35;9.50;;;;;;;19.50;64.35;95097.88;5111240;28;20039;-70
2022/06/28 04:18:40;;;;;;;11.25;8.93;;;;;;;20.17;62.47;95095.41;5127423;28;20043;-70
2022/06/28 04:21:05;;;;;;;10.40;9.30;;;;;;;20.77;60.04;95103.41;5126574;27;20039;-70
2022/06/28 04:23:31;;;;;;;10.20;9.00;;;;;;;21.24;58.07;95105.59;5127154;28;20223;-70
2022/06/28 04:25:56;;;;;;;9.57;8.52;;;;;;;21.61;56.97;95107.25;5126825;28;20125;-70
2022/06/28 04:28:22;;;;;;;11.35;9.00;;;;;;;21.81;56.11;95091.59;5126605;28;20049;-70
2022/06/28 04:30:47;;;;;;;11.32;9.43;;;;;;;22.61;54.58;95102.78;5126991;27;20546;-70
2022/06/28 04:33:13;;;;;;;10.25;9.25;;;;;;;23.05;52.07;95098.16;5120359;28;20028;-70
2022/06/28 04:35:38;;;;;;;12.73;10.52;;;;;;;23.57;50.74;95108.13;5121214;28;20035;-71
2022/06/28 04:38:04;;;;;;;11.98;9.57;;;;;;;24.40;48.94;95107.00;5109248;28;20035;-71
2022/06/28 04:40:29;;;;;;;12.98;9.35;;;;;;;24.93;47.35;95113.06;5126292;27;20059;-70
2022/06/28 04:42:54;;;;;;;11.18;10.07;;;;;;;25.30;46.42;95107.25;5112525;28;20053;-71
2022/06/28 04:45:20;;;;;;;10.32;9.23;;;;;;;25.46;45.74;95113.91;5095000;28;20036;-71
2022/06/28 04:47:46;;;;;;;13.40;8.95;;;;;;;25.04;46.87;95110.78;5113076;28;20073;-68
2022/06/28 04:50:11;;;;;;;13.43;9.77;;;;;;;24.48;48.24;95110.28;5113302;28;20051;-70
2022/06/28 04:52:37;;;;;;;10.55;9.07;;;;;;;24.17;49.12;95112.72;5113721;27;20016;-70
2022/06/28 04:55:03;;;;;;;10.65;8.45;;;;;;;24.13;49.36;95116.81;5112827;28;20042;-70
2022/06/28 04:57:28;;;;;;;11.38;9.77;;;;;;;23.74;50.31;95115.75;5109524;28;20027;-70
2022/06/28 04:59:54;;;;;;;9.23;8.32;;;;;;;23.56;50.39;95117.09;5113745;27;20066;-70
2022/06/28 05:02:19;;;;;;;13.55;9.23;;;;;;;23.54;50.95;95123.59;5111072;28;20024;-71
2022/06/28 05:04:45;;;;;;;10.88;7.75;;;;;;;23.47;50.93;95118.31;5113919;28;20076;-70
2022/06/28 05:07:10;;;;;;;9.57;7.75;;;;;;;23.55;51.17;95112.81;5112513;28;20084;-70
2022/06/28 05:09:36;;;;;;;14.05;9.00;;;;;;;23.50;51.28;95117.91;5111974;28;20042;-70
2022/06/28 05:12:01;;;;;;;8.93;7.95;;;;;;;23.51;51.30;95102.81;5113680;28;20032;-70
2022/06/28 05:14:27;;;;;;;12.13;8.23;;;;;;;23.40;51.74;95101.53;5118595;27;20046;-70
2022/06/28 05:16:52;;;;;;;10.68;7.80;;;;;;;23.36;51.90;95097.66;5120176;27;20028;-70
2022/06/28 05:19:18;;;;;;;10.65;8.60;;;;;;;23.54;51.97;95102.41;5095134;28;20036;-70
2022/06/28 05:21:43;;;;;;;11.95;8.27;;;;;;;23.37;52.01;95096.66;5110894;27;20028;-71
2022/06/28 05:24:09;;;;;;;8.88;7.93;;;;;;;23.34;51.92;95111.09;5123426;27;20069;-70
2022/06/28 05:26:34;;;;;;;10.85;7.80;;;;;;;23.30;52.49;95101.13;5133909;27;20027;-70
2022/06/28 05:29:00;;;;;;;11.85;7.93;;;;;;;23.41;52.00;95103.19;5103536;28;20444;-70
2022/06/28 05:31:26;;;;;;;8.60;7.57;;;;;;;23.34;51.68;95107.66;5113152;28;20031;-70
2022/06/28 05:33:51;;;;;;;9.15;7.50;;;;;;;23.14;52.25;95092.50;5113026;28;20035;-70
2022/06/28 05:36:17;;;;;;;10.63;7.90;;;;;;;23.14;52.97;95092.50;5111802;28;20105;-70
2022/06/28 05:38:42;;;;;;;9.57;8.25;;;;;;;23.16;53.28;95089.66;5111548;28;20028;-70
2022/06/28 05:41:09;;;;;;;11.60;8.13;;;;;;;23.28;52.14;95092.53;5112955;28;20562;-70
2022/06/28 05:43:35;;;;;;;13.00;8.02;;;;;;;23.37;52.37;95099.28;5112083;28;20057;-71
2022/06/28 05:46:00;;;;;;;13.73;6.97;;;;;;;23.40;52.92;95104.19;5113184;28;20027;-70
2022/06/28 05:48:26;;;;;;;12.63;7.53;;;;;;;23.29;52.80;95100.31;5111617;28;20092;-70
2022/06/28 05:50:52;;;;;;;9.73;7.75;;;;;;;23.42;52.68;95110.94;5111290;28;20523;-70
2022/06/28 05:53:17;;;;;;;9.13;7.95;;;;;;;23.39;52.48;95108.69;5111393;28;20096;-71
2022/06/28 05:55:43;;;;;;;11.55;8.73;;;;;;;23.38;52.69;95114.19;5109529;27;20205;-71
2022/06/28 05:58:08;;;;;;;10.65;7.30;;;;;;;23.35;52.85;95120.72;5112361;28;20028;-71
2022/06/28 06:00:37;;;;;;;9.70;7.18;;;;;;;23.42;51.96;95120.72;5094391;28;20038;-72
2022/06/28 06:03:03;;;;;;;10.95;7.60;;;;;;;23.45;52.17;95125.63;5111033;28;20106;-72
2022/06/28 06:05:28;;;;;;;8.95;7.40;;;;;;;23.49;52.56;95124.22;5111461;28;20038;-71
2022/06/28 06:07:54;;;;;;;14.57;7.10;;;;;;;23.69;52.52;95124.28;5118041;27;20019;-70
2022/06/28 06:10:19;;;;;;;8.15;7.35;;;;;;;23.84;51.93;95124.94;5118511;27;20039;-72
2022/06/28 06:12:45;;;;;;;9.80;7.03;;;;;;;24.00;51.81;95122.91;5117702;27;20024;-72
2022/06/28 06:15:10;;;;;;;12.18;6.97;;;;;;;23.99;51.13;95111.50;5116851;27;20031;-73
2022/06/28 06:17:36;;;;;;;17.23;6.90;;;;;;;24.11;51.31;95116.19;5115336;27;20493;-70
2022/06/28 06:20:02;;;;;;;9.25;6.70;;;;;;;24.18;50.69;95109.88;5114055;27;20110;-73
2022/06/28 06:22:29;;;;;;;7.93;6.63;;;;;;;24.42;50.48;95115.56;5148641;27;20023;-71
2022/06/28 06:24:54;;;;;;;7.28;6.57;;;;;;;24.58;49.80;95114.38;5112714;27;21080;-71
2022/06/28 06:27:20;;;;;;;7.90;6.30;;;;;;;24.71;49.40;95111.66;5128526;27;20031;-71
2022/06/28 06:29:45;;;;;;;6.82;6.13;;;;;;;24.81;49.30;95114.72;5105220;27;20066;-71
2022/06/28 06:32:11;;;;;;;11.35;6.07;;;;;;;24.93;49.29;95109.56;5118894;27;20020;-71
2022/06/28 06:34:36;;;;;;;7.90;6.32;;;;;;;24.98;48.90;95107.13;5116714;27;20035;-72
2022/06/28 06:37:01;;;;;;;13.02;6.88;;;;;;;24.92;48.50;95100.78;5111817;27;20031;-71
2022/06/28 06:39:27;;;;;;;7.10;6.03;;;;;;;25.01;48.76;95103.22;5110207;28;20441;-72
2022/06/28 06:41:52;;;;;;;7.15;6.35;;;;;;;25.17;47.90;95092.16;5109793;28;20458;-72
2022/06/28 06:44:18;;;;;;;6.80;6.10;;;;;;;25.18;47.91;95088.47;5110259;28;20497;-71
2022/06/28 06:46:43;;;;;;;7.25;6.05;;;;;;;25.29;48.02;95087.81;5108542;28;20085;-71
2022/06/28 06:49:09;;;;;;;8.80;6.60;;;;;;;25.36;47.07;95083.28;5091272;28;20024;-72
2022/06/28 06:51:35;;;;;;;10.30;6.60;;;;;;;25.36;47.20;95074.50;5109528;28;20503;-72
2022/06/28 06:54:00;;;;;;;7.03;6.35;;;;;;;25.56;47.43;95082.34;5108510;28;20015;-72
2022/06/28 06:56:26;;;;;;;7.80;6.32;;;;;;;25.70;46.88;95075.13;5109469;28;20451;-72
2022/06/28 06:58:51;;;;;;;7.85;5.70;;;;;;;25.93;46.49;95070.06;5108556;28;20463;-72
2022/06/28 07:01:17;;;;;;;8.43;6.15;;;;;;;26.10;46.38;95073.00;5109891;28;20051;-72
2022/06/28 07:03:44;;;;;;;9.80;6.80;;;;;;;26.18;45.99;95063.94;5109398;28;20031;-72
2022/06/28 07:06:14;;;;;;;8.50;6.55;;;;;;;26.25;45.59;95068.16;5074958;28;20105;-72
2022/06/28 07:08:39;;;;;;;9.93;6.22;;;;;;;26.31;45.99;95066.47;5111890;28;20058;-72
2022/06/28 07:11:05;;;;;;;10.38;6.50;;;;;;;26.41;45.86;95065.97;5111800;28;20043;-72
2022/06/28 07:13:30;;;;;;;9.32;6.57;;;;;;;26.54;45.74;95071.19;5110278;28;20020;-72
2022/06/28 07:15:56;;;;;;;13.00;6.53;;;;;;;26.59;44.97;95073.22;5110403;28;20032;-72
2022/06/28 07:18:21;;;;;;;9.68;6.85;;;;;;;26.53;44.54;95069.59;5110099;28;20120;-72
2022/06/28 07:20:47;;;;;;;7.82;6.65;;;;;;;26.56;45.00;95068.34;5109527;28;20032;-72
2022/06/28 07:23:12;;;;;;;11.00;6.30;;;;;;;26.61;44.38;95055.97;5110393;28;20504;-72
2022/06/28 07:25:38;;;;;;;7.88;6.80;;;;;;;26.72;43.67;95063.25;5091768;28;20496;-72
2022/06/28 07:28:03;;;;;;;10.98;6.47;;;;;;;26.79;43.74;95063.16;5108936;28;20050;-72
2022/06/28 07:30:29;;;;;;;10.07;6.78;;;;;;;26.89;43.00;95070.66;5107918;28;20035;-72
2022/06/28 07:32:54;;;;;;;8.77;6.32;;;;;;;26.97;41.93;95073.03;5107909;28;20031;-72
2022/06/28 07:35:24;;;;;;;10.85;6.03;;;;;;;26.90;41.83;95056.28;5108046;28;20048;-72
2022/06/28 07:37:50;;;;;;;8.25;5.38;;;;;;;27.05;41.54;95078.06;5108044;28;20072;-72
2022/06/28 07:40:16;;;;;;;6.75;5.70;;;;;;;27.09;40.54;95079.22;5124658;28;20047;-72
2022/06/28 07:42:41;;;;;;;7.32;5.70;;;;;;;27.10;41.00;95078.16;5107804;28;20027;-72
2022/06/28 07:45:07;;;;;;;8.63;5.40;;;;;;;27.28;40.75;95072.06;5107935;28;20390;-72
2022/06/28 07:47:32;;;;;;;8.77;4.75;;;;;;;27.33;39.60;95064.19;5109321;28;20053;-73
2022/06/28 07:52:42;;;;;;;6.72;4.93;;;;;;;27.51;39.39;95086.53;5088067;28;20408;-72
2022/06/28 07:55:08;;;;;;;5.82;4.80;;;;;;;27.58;40.41;95088.06;5104700;28;20031;-71
2022/06/28 07:57:34;;;;;;;9.52;5.75;;;;;;;27.70;40.91;95087.28;5109582;28;20028;-71
2022/06/28 07:59:59;;;;;;;7.13;5.90;;;;;;;27.86;40.51;95078.69;5109410;28;20480;-72
2022/06/28 08:02:25;;;;;;;9.52;5.65;;;;;;;27.88;39.11;95078.44;5149183;27;20544;-71
2022/06/28 08:04:50;;;;;;;8.02;5.28;;;;;;;27.86;38.96;95070.66;5144827;27;20023;-71
2022/06/28 08:07:16;;;;;;;9.23;5.28;;;;;;;27.95;39.69;95068.47;5110473;28;20521;-71
2022/06/28 08:09:41;;;;;;;7.45;5.00;;;;;;;28.04;39.51;95067.91;5104049;28;20043;-71
2022/06/28 08:12:07;;;;;;;5.38;4.68;;;;;;;27.99;39.06;95066.97;5106536;28;20043;-71
2022/06/28 08:14:32;;;;;;;7.95;4.45;;;;;;;27.90;37.73;95063.00;5105931;28;20118;-71
2022/06/28 08:16:58;;;;;;;6.57;4.07;;;;;;;27.59;37.95;95056.88;5107804;28;20031;-71
2022/06/28 08:19:23;;;;;;;6.72;4.20;;;;;;;27.60;38.59;95056.63;5110118;28;20059;-72
2022/06/28 08:21:49;;;;;;;7.00;3.95;;;;;;;27.61;39.75;95058.25;5108172;28;20054;-72
2022/06/28 08:24:15;;;;;;;5.15;4.10;;;;;;;27.73;38.82;95062.81;5092043;28;20073;-72
2022/06/28 08:26:42;;;;;;;4.68;4.25;;;;;;;27.86;38.96;95057.31;5107834;27;20157;-72
2022/06/28 08:29:12;;;;;;;5.72;4.40;;;;;;;27.99;39.16;95057.09;5110853;27;20027;-72
2022/06/28 08:31:37;;;;;;;5.20;4.28;;;;;;;28.01;38.48;95060.34;5091282;28;20511;-72
2022/06/28 08:34:02;;;;;;;4.65;3.90;;;;;;;28.03;37.76;95063.63;5110513;27;20035;-72
2022/06/28 08:36:28;;;;;;;6.40;4.47;;;;;;;28.09;38.32;95053.06;5110350;27;20028;-72
2022/06/28 08:38:54;;;;;;;6.20;4.20;;;;;;;28.17;39.42;95058.88;5109172;27;20405;-70
2022/06/28 08:41:19;;;;;;;14.57;4.75;;;;;;;28.24;38.08;95066.75;5110432;27;20047;-73
2022/06/28 08:43:45;;;;;;;5.30;4.50;;;;;;;28.27;39.24;95064.44;5090907;27;20024;-72
2022/06/28 08:46:10;;;;;;;5.45;4.55;;;;;;;28.27;37.66;95063.63;5093564;28;20043;-73
2022/06/28 08:48:42;;;;;;;4.93;4.45;;;;;;;28.30;38.02;95063.16;5110432;27;20027;-72
2022/06/28 08:51:11;;;;;;;7.35;4.15;;;;;;;28.38;37.58;95065.50;5109753;27;20069;-71
2022/06/28 08:53:37;;;;;;;6.63;4.20;;;;;;;28.49;37.94;95062.03;5107145;28;20047;-72
2022/06/28 08:56:08;;;;;;;7.22;4.00;;;;;;;28.46;36.80;95054.50;5110333;27;20128;-72
2022/06/28 08:58:33;;;;;;;5.18;4.32;;;;;;;28.32;36.77;95053.06;5091938;28;20084;-72
2022/06/28 09:00:59;;;;;;;5.95;4.47;;;;;;;28.24;36.70;95053.41;5091456;28;20466;-72
2022/06/28 09:03:24;;;;;;;5.22;3.92;;;;;;;28.23;36.69;95043.78;5072988;27;20027;-72
2022/06/28 09:05:50;;;;;;;5.90;4.20;;;;;;;28.41;37.22;95058.88;5108447;27;20040;-71
2022/06/28 09:08:15;;;;;;;4.57;4.13;;;;;;;28.34;38.83;95052.84;5090341;28;20043;-72
2022/06/28 09:10:43;;;;;;;6.82;4.40;;;;;;;28.34;38.55;95056.34;5106440;27;20050;-72
2022/06/28 09:13:10;;;;;;;4.97;4.20;;;;;;;28.35;37.86;95060.63;5108729;27;20487;-72
2022/06/28 09:15:56;;;;;;;6.18;4.30;;;;;;;28.35;38.40;95059.81;5107868;27;20031;-72
2022/06/28 09:18:43;;;;;;;6.85;4.40;;;;;;;28.44;39.29;95059.25;5109202;27;20028;-72
2022/06/28 09:21:10;;;;;;;4.47;4.07;;;;;;;28.56;38.63;95061.94;5106154;27;20047;-71
2022/06/28 09:23:37;;;;;;;7.55;4.28;;;;;;;28.57;37.60;95054.72;5109484;28;20072;-72
2022/06/28 09:26:17;;;;;;;5.85;4.35;;;;;;;28.57;36.76;95052.06;5091198;28;20042;-72
2022/06/28 09:28:46;;;;;;;;;;;;;;;28.52;37.00;95055.41;5092448;28;20534;-72
2022/06/28 09:31:21;;;;;;;7.30;4.40;;;;;;;28.49;37.13;95053.22;5107176;28;19936;-72
2022/06/28 09:34:03;;;;;;;4.75;4.35;;;;;;;28.52;37.19;95055.41;5109873;28;20046;-72
2022/06/28 09:36:37;;;;;;;8.68;4.35;;;;;;;28.49;37.18;95046.00;5106088;28;20031;-72
2022/06/28 09:39:13;;;;;;;5.53;4.57;;;;;;;28.51;37.37;95046.59;5092793;28;20067;-72
2022/06/28 09:41:44;;;;;;;5.00;4.47;;;;;;;28.51;36.16;95048.47;5076853;28;20109;-72
2022/06/28 09:44:09;;;;;;;;;;;;;;;28.57;36.90;95047.53;5104990;28;20024;-72
2022/06/28 09:46:34;;;;;;;5.00;4.20;;;;;;;28.60;37.62;95040.91;5103052;28;19912;-72
2022/06/28 09:49:04;;;;;;;4.85;4.13;;;;;;;28.56;35.52;95035.22;5090779;28;20563;-71
2022/06/28 09:51:32;;;;;;;4.72;4.25;;;;;;;28.54;36.61;95036.50;5093058;28;20454;-73
2022/06/28 09:54:04;;;;;;;4.55;4.10;;;;;;;28.59;37.28;95039.28;5106916;28;20039;-72
2022/06/28 09:56:33;;;;;;;7.05;4.30;;;;;;;28.70;37.40;95036.59;5074624;28;20406;-72
2022/06/28 09:58:58;;;;;;;7.60;4.05;;;;;;;28.76;36.58;95044.72;5124184;27;20031;-72
2022/06/28 10:01:24;;;;;;;6.60;4.43;;;;;;;28.79;36.55;95034.38;5130817;27;20100;-72
2022/06/28 10:03:49;;;;;;;4.80;4.10;;;;;;;28.80;36.23;95025.28;5095775;28;20389;-74
2022/06/28 10:06:16;;;;;;;4.90;4.40;;;;;;;28.78;35.61;95027.41;5065561;28;20584;-74
2022/06/28 10:08:42;;;;;;;4.80;4.30;;;;;;;28.77;37.43;95031.09;5108473;27;20071;-72
2022/06/28 10:11:07;;;;;;;4.88;4.13;;;;;;;28.89;36.61;95029.25;5107988;28;20524;-72
2022/06/28 10:16:38;;;;;;;4.90;4.40;;;;;;;28.99;36.87;95028.63;5120207;27;20073;-70
2022/06/28 10:19:04;;;;;;;10.25;5.15;;;;;;;29.10;35.96;95022.47;5092099;28;20035;-71
2022/06/28 10:21:45;;;;;;;10.52;4.85;;;;;;;29.20;36.96;95024.53;5107785;27;20390;-71
2022/06/28 10:24:12;;;;;;;6.72;4.80;;;;;;;29.14;35.49;95020.09;5090719;28;20070;-72
2022/06/28 10:26:38;;;;;;;5.43;4.22;;;;;;;29.09;35.76;95018.16;5090568;28;20428;-73
2022/06/28 10:29:07;;;;;;;5.15;4.47;;;;;;;29.01;36.55;95005.16;5090630;28;20023;-72
2022/06/28 10:31:40;;;;;;;5.50;4.63;;;;;;;29.04;36.80;94993.19;5124604;27;20498;-72
2022/06/28 10:34:08;;;;;;;6.85;4.90;;;;;;;29.14;35.45;95004.91;5082671;28;20020;-71
2022/06/28 10:36:45;;;;;;;5.68;4.72;;;;;;;29.13;36.43;95008.59;5087941;28;20466;-71
2022/06/28 10:39:15;;;;;;;5.22;4.60;;;;;;;29.08;35.25;94999.69;5076103;28;20032;-71
2022/06/28 10:41:44;;;;;;;;;;;;;;;29.10;36.25;95000.25;5092167;28;20134;-71
2022/06/28 10:44:29;;;;;;;5.63;4.68;;;;;;;29.11;37.35;95008.06;5107301;28;19912;-71
2022/06/28 10:47:01;;;;;;;5.03;4.53;;;;;;;29.11;36.11;95004.53;5099256;27;20039;-71
2022/06/28 10:49:26;;;;;;;6.22;4.45;;;;;;;29.17;35.63;95004.41;5108677;28;20066;-70
2022/06/28 10:52:09;;;;;;;5.63;4.95;;;;;;;29.11;35.14;94993.84;5087574;27;20067;-71
2022/06/28 10:54:34;;;;;;;5.85;4.60;;;;;;;29.04;35.15;95004.69;5091145;27;20308;-70
2022/06/28 10:57:00;;;;;;;5.07;4.47;;;;;;;29.07;36.12;95003.41;5108719;27;20019;-73
2022/06/28 10:59:36;;;;;;;7.50;4.10;;;;;;;29.08;35.84;94999.69;5107758;28;20535;-71
2022/06/28 11:02:02;;;;;;;4.80;4.40;;;;;;;28.96;36.23;94997.00;5086827;28;20028;-71
2022/06/28 11:04:29;;;;;;;6.50;4.50;;;;;;;28.73;36.44;94987.22;5102874;28;20111;-71
2022/06/28 11:07:05;;;;;;;5.97;4.65;;;;;;;28.55;38.18;94984.69;5089615;28;20031;-70
2022/06/28 11:09:47;;;;;;;6.43;4.30;;;;;;;28.47;38.99;94984.00;5089940;28;20435;-70
2022/06/28 11:12:15;;;;;;;4.82;4.32;;;;;;;28.48;35.92;94980.28;5105452;28;20423;-71
2022/06/28 11:14:44;;;;;;;5.47;4.30;;;;;;;28.50;37.31;94964.84;5106239;28;20128;-70
2022/06/28 11:17:26;;;;;;;7.93;4.35;;;;;;;28.65;36.28;94960.84;5106312;28;20055;-70
2022/06/28 11:19:53;;;;;;;5.72;4.30;;;;;;;28.78;36.54;94963.25;5103742;28;20031;-70
2022/06/28 11:22:43;;;;;;;5.78;4.50;;;;;;;28.78;35.64;94960.59;5087664;28;20106;-70
2022/06/28 11:25:10;;;;;;;6.35;4.20;;;;;;;28.81;35.38;94961.97;5104489;28;20059;-70
2022/06/28 11:27:43;;;;;;;5.68;4.63;;;;;;;28.91;36.23;94972.84;5089783;28;20035;-71
2022/06/28 11:30:09;;;;;;;5.38;4.05;;;;;;;29.01;35.88;94973.06;5091046;28;20425;-70
2022/06/28 11:32:37;;;;;;;5.95;4.22;;;;;;;29.07;35.76;94961.44;5103275;28;20115;-70
2022/06/28 11:35:03;;;;;;;5.07;4.28;;;;;;;29.15;37.08;94970.94;5101715;28;20542;-70
2022/06/28 11:37:30;;;;;;;4.95;4.45;;;;;;;29.25;35.86;94960.41;5104757;28;20034;-71
2022/06/28 11:39:57;;;;;;;5.00;4.10;;;;;;;29.14;35.67;94966.63;5104485;28;20055;-70
2022/06/28 11:42:23;;;;;;;4.43;3.90;;;;;;;29.15;35.55;94968.28;5106135;28;20035;-70
2022/06/28 11:44:50;;;;;;;5.60;4.18;;;;;;;29.01;36.12;94950.88;5089625;28;20039;-70
2022/06/28 11:47:18;;;;;;;4.45;4.05;;;;;;;29.11;34.60;94961.75;5089512;28;20027;-70
2022/06/28 11:49:43;;;;;;;5.57;4.13;;;;;;;29.12;34.44;94971.44;5071506;28;20050;-70
2022/06/28 11:52:16;;;;;;;4.82;3.95;;;;;;;29.21;35.94;94971.84;5088373;28;20420;-70
2022/06/28 11:54:45;;;;;;;4.60;4.20;;;;;;;29.30;35.51;94968.53;5108190;28;20034;-70
2022/06/28 11:57:16;;;;;;;4.73;4.10;;;;;;;29.30;35.69;94973.06;5109496;28;20023;-70
2022/06/28 11:59:58;;;;;;;4.30;3.92;;;;;;;29.31;36.12;94967.50;5108334;28;20028;-70
2022/06/28 12:03:00;;;;;;;4.18;3.70;;;;;;;29.28;35.54;94981.34;5089892;28;20073;-71
2022/06/28 12:05:34;;;;;;;4.82;3.63;;;;;;;29.27;32.67;94966.34;5077862;28;20044;-72
2022/06/28 12:08:00;;;;;;;5.35;3.70;;;;;;;29.22;33.36;94973.47;5090033;28;20034;-73
2022/06/28 12:10:31;;;;;;;5.03;3.92;;;;;;;29.21;34.37;94975.34;5092053;28;20028;-73
2022/06/28 12:12:58;;;;;;;6.22;3.90;;;;;;;29.30;35.38;94975.75;5088782;28;20027;-73
2022/06/28 12:15:30;;;;;;;5.13;4.07;;;;;;;29.32;34.03;94966.44;5108140;27;20409;-70